createdAt,value
2023-05-08T00:02:01.353Z,101821.44
2023-05-08T00:04:27.814Z,101822.53
2023-05-08T00:06:54.261Z,101818.75
2023-05-08T00:09:20.970Z,101819.19
2023-05-08T00:11:47.407Z,101812.28
2023-05-08T00:14:13.986Z,101816.84
2023-05-08T00:16:40.478Z,101818.84
2023-05-08T00:19:07.334Z,101821.47
2023-05-08T00:21:33.928Z,101817.81
2023-05-08T00:24:00.908Z,101818.06
2023-05-08T00:26:27.397Z,101822.78
2023-05-08T00:28:53.824Z,101811.81
2023-05-08T00:31:20.356Z,101812.41
2023-05-08T00:33:46.783Z,101817.22
2023-05-08T00:36:15.609Z,101811.47
2023-05-08T00:38:42.107Z,101810.88
2023-05-08T00:41:08.937Z,101813.94
2023-05-08T00:43:35.804Z,101810.28
2023-05-08T00:46:02.868Z,101816.06
2023-05-08T00:48:31.964Z,101818.66
2023-05-08T00:51:00.046Z,101815.97
2023-05-08T00:53:28.428Z,101814.28
2023-05-08T00:55:55.123Z,101810.31
2023-05-08T00:58:24.609Z,101808.28
2023-05-08T01:00:54.202Z,101807.59
2023-05-08T01:03:21.103Z,101813.00
2023-05-08T01:05:48.422Z,101805.00
2023-05-08T01:08:14.968Z,101803.09
2023-05-08T01:10:54.958Z,101806.75
2023-05-08T01:13:31.904Z,101793.56
2023-05-08T01:16:08.565Z,101801.56
2023-05-08T01:18:41.442Z,101796.41
2023-05-08T01:21:45.874Z,101790.38
2023-05-08T01:24:42.461Z,101797.22
2023-05-08T01:27:40.878Z,101794.50
2023-05-08T01:30:20.967Z,101796.75
2023-05-08T01:32:56.823Z,101793.91
2023-05-08T01:35:32.677Z,101798.16
2023-05-08T01:38:22.556Z,101806.41
2023-05-08T01:40:54.479Z,101804.91
2023-05-08T01:43:38.439Z,101802.63
2023-05-08T01:46:09.819Z,101803.34
2023-05-08T01:48:42.397Z,101806.97
2023-05-08T01:51:16.953Z,101805.81
2023-05-08T01:53:51.143Z,101806.50
2023-05-08T01:56:22.131Z,101800.47
2023-05-08T01:58:54.248Z,101805.66
2023-05-08T02:01:24.114Z,101800.47
2023-05-08T02:03:52.385Z,101795.66
2023-05-08T02:06:21.964Z,101798.47
2023-05-08T02:08:50.267Z,101796.84
2023-05-08T02:11:18.544Z,101795.41
2023-05-08T02:13:48.438Z,101798.09
2023-05-08T02:16:15.630Z,101785.84
2023-05-08T02:18:53.134Z,101792.91
2023-05-08T02:21:21.657Z,101786.34
2023-05-08T02:23:50.135Z,101797.75
2023-05-08T02:26:17.129Z,101799.66
2023-05-08T02:28:44.275Z,101787.97
2023-05-08T02:31:12.424Z,101797.06
2023-05-08T02:33:41.565Z,101799.97
2023-05-08T02:36:10.793Z,101796.22
2023-05-08T02:38:38.747Z,101794.31
2023-05-08T02:41:06.542Z,101794.78
2023-05-08T02:43:33.348Z,101791.69
2023-05-08T02:46:12.561Z,101792.53
2023-05-08T02:48:47.876Z,101791.22
2023-05-08T02:51:43.858Z,101779.81
2023-05-08T02:54:21.741Z,101782.06
2023-05-08T02:57:08.631Z,101782.16
2023-05-08T02:59:50.744Z,101775.50
2023-05-08T03:02:28.774Z,101776.59
2023-05-08T03:04:59.416Z,101785.50
2023-05-08T03:07:29.785Z,101787.31
2023-05-08T03:10:05.197Z,101777.09
2023-05-08T03:12:36.172Z,101784.03
2023-05-08T03:15:06.586Z,101785.28
2023-05-08T03:17:37.808Z,101782.34
2023-05-08T03:20:07.118Z,101784.94
2023-05-08T03:22:36.937Z,101786.94
2023-05-08T03:25:06.852Z,101780.69
2023-05-08T03:27:36.814Z,101781.13
2023-05-08T03:30:06.069Z,101780.13
2023-05-08T03:32:35.485Z,101771.66
2023-05-08T03:35:03.834Z,101772.88
2023-05-08T03:37:30.974Z,101777.84
2023-05-08T03:39:57.852Z,101765.09
2023-05-08T03:42:25.282Z,101777.94
2023-05-08T03:44:52.934Z,101776.22
2023-05-08T03:47:26.030Z,101778.31
2023-05-08T03:49:52.894Z,101782.53
2023-05-08T03:52:19.464Z,101781.56
2023-05-08T03:54:46.685Z,101772.84
2023-05-08T03:57:13.706Z,101778.84
2023-05-08T04:00:13.892Z,101770.19
2023-05-08T04:02:42.165Z,101769.69
2023-05-08T04:05:28.133Z,101789.94
2023-05-08T04:08:15.485Z,101769.22
2023-05-08T04:11:04.162Z,101777.94
2023-05-08T04:13:36.914Z,101790.28
2023-05-08T04:16:17.242Z,101788.19
2023-05-08T04:18:47.908Z,101792.69
2023-05-08T04:21:20.347Z,101795.38
2023-05-08T04:23:50.682Z,101796.06
2023-05-08T04:26:18.937Z,101787.59
2023-05-08T04:28:48.808Z,101783.59
2023-05-08T04:31:19.532Z,101790.28
2023-05-08T04:33:46.895Z,101778.06
2023-05-08T04:36:14.540Z,101786.50
2023-05-08T04:38:43.638Z,101777.72
2023-05-08T04:41:11.256Z,101785.94
2023-05-08T04:43:38.462Z,101775.94
2023-05-08T04:46:06.959Z,101778.19
2023-05-08T04:48:34.020Z,101772.44
2023-05-08T04:51:01.161Z,101773.72
2023-05-08T04:53:28.042Z,101771.34
2023-05-08T04:55:54.512Z,101778.41
2023-05-08T04:58:21.012Z,101790.44
2023-05-08T05:00:48.941Z,101780.19
2023-05-08T05:03:15.631Z,101794.03
2023-05-08T05:05:42.784Z,101793.53
2023-05-08T05:08:09.518Z,101796.47
2023-05-08T05:10:37.730Z,101800.72
2023-05-08T05:13:04.387Z,101794.72
2023-05-08T05:15:32.128Z,101801.19
2023-05-08T05:17:58.906Z,101787.34
2023-05-08T05:20:26.256Z,101800.75
2023-05-08T05:22:53.260Z,101788.03
2023-05-08T05:25:19.856Z,101789.59
2023-05-08T05:27:47.113Z,101791.53
2023-05-08T05:30:14.057Z,101794.13
2023-05-08T05:32:40.809Z,101803.34
2023-05-08T05:35:08.072Z,101801.47
2023-05-08T05:37:34.717Z,101799.78
2023-05-08T05:40:01.376Z,101805.97
2023-05-08T05:42:30.094Z,101811.72
2023-05-08T05:44:59.572Z,101812.69
2023-05-08T05:47:26.764Z,101811.88
2023-05-08T05:49:53.205Z,101825.81
2023-05-08T05:52:19.662Z,101829.50
2023-05-08T05:54:46.598Z,101829.88
2023-05-08T05:57:13.898Z,101821.16
2023-05-08T05:59:41.177Z,101824.34
2023-05-08T06:02:10.250Z,101820.91
2023-05-08T06:04:37.879Z,101821.28
2023-05-08T06:07:06.678Z,101822.78
2023-05-08T06:09:33.181Z,101825.59
2023-05-08T06:11:59.600Z,101828.81
2023-05-08T06:14:26.258Z,101833.03
2023-05-08T06:16:53.009Z,101838.44
2023-05-08T06:19:19.496Z,101831.38
2023-05-08T06:21:46.271Z,101835.13
2023-05-08T06:24:12.674Z,101830.06
2023-05-08T06:26:39.130Z,101827.81
2023-05-08T06:29:05.533Z,101834.88
2023-05-08T06:31:32.101Z,101826.22
2023-05-08T06:33:58.606Z,101833.66
2023-05-08T06:36:25.005Z,101837.31
2023-05-08T06:38:51.408Z,101833.22
2023-05-08T06:41:17.821Z,101832.06
2023-05-08T06:43:44.300Z,101825.13
2023-05-08T06:46:10.771Z,101833.50
2023-05-08T06:48:37.182Z,101833.88
2023-05-08T06:51:04.435Z,101828.03
2023-05-08T06:53:31.311Z,101829.38
2023-05-08T06:56:00.699Z,101823.63
2023-05-08T06:58:27.139Z,101828.38
2023-05-08T07:00:53.544Z,101828.81
2023-05-08T07:03:19.938Z,101827.16
2023-05-08T07:05:46.371Z,101827.72
2023-05-08T07:08:12.744Z,101836.59
2023-05-08T07:10:39.265Z,101825.84
2023-05-08T07:13:05.951Z,101834.66
2023-05-08T07:15:32.746Z,101839.00
2023-05-08T07:17:59.284Z,101838.31
2023-05-08T07:20:26.493Z,101836.22
2023-05-08T07:22:52.961Z,101836.03
2023-05-08T07:25:19.982Z,101841.22
2023-05-08T07:27:46.460Z,101827.56
2023-05-08T07:30:13.213Z,101827.75
2023-05-08T07:32:39.858Z,101834.16
2023-05-08T07:35:10.844Z,101838.00
2023-05-08T07:37:38.575Z,101840.19
2023-05-08T07:40:05.555Z,101839.66
2023-05-08T07:42:38.629Z,101830.91
2023-05-08T07:45:05.481Z,101834.31
2023-05-08T07:47:32.349Z,101828.19
2023-05-08T07:49:58.817Z,101830.41
2023-05-08T07:52:25.278Z,101829.31
2023-05-08T07:54:51.803Z,101828.53
2023-05-08T07:57:18.231Z,101830.13
2023-05-08T07:59:44.678Z,101835.31
2023-05-08T08:02:11.180Z,101828.84
2023-05-08T08:04:37.853Z,101838.78
2023-05-08T08:07:04.634Z,101836.22
2023-05-08T08:09:32.171Z,101835.50
2023-05-08T08:11:58.604Z,101832.41
2023-05-08T08:14:27.408Z,101827.50
2023-05-08T08:16:53.870Z,101828.94
2023-05-08T08:19:20.304Z,101826.28
2023-05-08T08:21:46.768Z,101829.00
2023-05-08T08:24:13.476Z,101832.31
2023-05-08T08:26:39.924Z,101834.75
2023-05-08T08:29:06.727Z,101833.38
2023-05-08T08:31:33.402Z,101834.75
2023-05-08T08:33:59.914Z,101834.78
2023-05-08T08:36:26.316Z,101830.97
2023-05-08T08:38:53.472Z,101826.03
2023-05-08T08:41:19.852Z,101816.19
2023-05-08T08:43:47.386Z,101807.38
2023-05-08T08:46:15.288Z,101809.06
2023-05-08T08:48:47.361Z,101807.09
2023-05-08T08:51:33.061Z,101813.66
2023-05-08T08:54:12.153Z,101810.13
2023-05-08T08:56:42.931Z,101808.94
2023-05-08T08:59:11.889Z,101812.78
2023-05-08T09:01:40.736Z,101810.38
2023-05-08T09:04:07.435Z,101811.16
2023-05-08T09:06:36.683Z,101819.56
2023-05-08T09:09:04.100Z,101816.44
2023-05-08T09:11:31.224Z,101811.41
2023-05-08T09:13:58.367Z,101805.53
2023-05-08T09:16:25.558Z,101805.53
2023-05-08T09:18:52.023Z,101800.31
2023-05-08T09:21:18.479Z,101801.31
2023-05-08T09:24:03.451Z,101812.88
2023-05-08T09:26:34.496Z,101810.72
2023-05-08T09:29:15.299Z,101805.09
2023-05-08T09:31:44.314Z,101807.84
2023-05-08T09:34:21.547Z,101811.47
2023-05-08T09:36:48.093Z,101800.31
2023-05-08T09:39:25.250Z,101801.97
2023-05-08T09:42:03.171Z,101810.09
2023-05-08T09:44:44.184Z,101799.63
2023-05-08T09:47:12.754Z,101799.38
2023-05-08T09:49:40.540Z,101808.97
2023-05-08T09:52:08.284Z,101798.88
2023-05-08T09:54:35.040Z,101808.31
2023-05-08T09:57:11.979Z,101800.75
2023-05-08T09:59:38.499Z,101802.72
2023-05-08T10:02:12.715Z,101800.81
2023-05-08T10:04:39.207Z,101791.34
2023-05-08T10:07:05.785Z,101798.44
2023-05-08T10:09:46.946Z,101787.94
2023-05-08T10:12:16.487Z,101792.34
2023-05-08T10:14:45.563Z,101789.19
2023-05-08T10:17:16.093Z,101788.00
2023-05-08T10:19:45.859Z,101779.69
2023-05-08T10:22:15.519Z,101782.75
2023-05-08T10:24:44.172Z,101788.53
2023-05-08T10:27:20.807Z,101785.03
2023-05-08T10:29:54.873Z,101780.41
2023-05-08T10:32:23.649Z,101780.63
2023-05-08T10:34:53.585Z,101781.84
2023-05-08T10:37:20.270Z,101784.97
2023-05-08T10:39:48.073Z,101779.47
2023-05-08T10:42:15.044Z,101772.53
2023-05-08T10:44:41.425Z,101774.59
2023-05-08T10:47:24.354Z,101773.69
2023-05-08T10:50:09.382Z,101775.78
2023-05-08T10:52:43.911Z,101774.88
2023-05-08T10:55:25.202Z,101776.72
2023-05-08T10:58:10.078Z,101774.59
2023-05-08T11:00:51.750Z,101772.72
2023-05-08T11:03:31.441Z,101764.03
2023-05-08T11:06:01.182Z,101767.13
2023-05-08T11:08:28.956Z,101765.09
2023-05-08T11:10:58.432Z,101762.22
2023-05-08T11:13:30.742Z,101760.97
2023-05-08T11:15:57.455Z,101755.66
2023-05-08T11:18:30.177Z,101753.50
2023-05-08T11:21:15.250Z,101763.09
2023-05-08T11:23:41.725Z,101756.78
2023-05-08T11:26:11.327Z,101752.53
2023-05-08T11:28:40.562Z,101755.28
2023-05-08T11:31:08.510Z,101756.91
2023-05-08T11:33:41.098Z,101752.81
2023-05-08T11:36:22.918Z,101754.75
2023-05-08T11:39:25.000Z,101748.19
2023-05-08T11:41:51.394Z,101750.50
2023-05-08T11:44:20.679Z,101751.09
2023-05-08T11:46:55.373Z,101757.94
2023-05-08T11:49:27.116Z,101756.94
2023-05-08T11:51:58.687Z,101758.22
2023-05-08T11:54:25.826Z,101758.91
2023-05-08T11:56:57.016Z,101757.50
2023-05-08T11:59:23.468Z,101765.00
2023-05-08T12:02:06.680Z,101764.66
2023-05-08T12:04:42.900Z,101766.22
2023-05-08T12:07:09.370Z,101760.25
2023-05-08T12:09:38.096Z,101754.16
2023-05-08T12:12:04.745Z,101758.88
2023-05-08T12:14:31.391Z,101755.28
2023-05-08T12:16:57.812Z,101756.47
2023-05-08T12:19:24.296Z,101762.88
2023-05-08T12:21:51.311Z,101753.00
2023-05-08T12:24:23.250Z,101759.72
2023-05-08T12:26:53.012Z,101761.44
2023-05-08T12:29:19.719Z,101764.03
2023-05-08T12:31:47.282Z,101765.78
2023-05-08T12:34:13.945Z,101759.59
2023-05-08T12:36:40.325Z,101764.97
2023-05-08T12:39:17.324Z,101750.19
2023-05-08T12:41:51.679Z,101759.16
2023-05-08T12:44:25.974Z,101763.97
2023-05-08T12:46:54.352Z,101754.25
2023-05-08T12:49:25.120Z,101755.38
2023-05-08T12:51:52.724Z,101751.13
2023-05-08T12:54:19.204Z,101758.75
2023-05-08T12:56:45.683Z,101745.31
2023-05-08T12:59:12.152Z,101739.38
2023-05-08T13:01:38.881Z,101742.47
2023-05-08T13:04:07.807Z,101742.28
2023-05-08T13:06:34.839Z,101729.19
2023-05-08T13:09:01.351Z,101728.63
2023-05-08T13:11:30.775Z,101734.34
2023-05-08T13:13:57.357Z,101730.13
2023-05-08T13:16:24.017Z,101728.97
2023-05-08T13:18:50.424Z,101728.88
2023-05-08T13:21:16.841Z,101727.69
2023-05-08T13:23:43.394Z,101728.84
2023-05-08T13:26:10.049Z,101727.06
2023-05-08T13:28:36.543Z,101713.72
2023-05-08T13:31:03.057Z,101718.28
2023-05-08T13:33:29.633Z,101719.88
2023-05-08T13:35:56.172Z,101699.72
2023-05-08T13:38:22.563Z,101696.16
2023-05-08T13:40:48.980Z,101697.00
2023-05-08T13:43:15.489Z,101690.16
2023-05-08T13:45:42.179Z,101695.84
2023-05-08T13:48:09.037Z,101686.09
2023-05-08T13:50:35.603Z,101697.81
2023-05-08T13:53:02.434Z,101686.88
2023-05-08T13:55:29.068Z,101680.41
2023-05-08T13:57:57.782Z,101682.66
2023-05-08T14:00:26.017Z,101687.25
2023-05-08T14:02:54.440Z,101676.00
2023-05-08T14:05:20.934Z,101675.63
2023-05-08T14:07:47.369Z,101682.19
2023-05-08T14:10:13.811Z,101671.09
2023-05-08T14:12:40.452Z,101672.13
2023-05-08T14:15:07.756Z,101672.44
2023-05-08T14:17:34.394Z,101668.50
2023-05-08T14:20:00.953Z,101669.31
2023-05-08T14:22:27.354Z,101662.81
2023-05-08T14:24:54.092Z,101669.31
2023-05-08T14:27:20.739Z,101659.22
2023-05-08T14:29:47.476Z,101657.28
2023-05-08T14:32:13.896Z,101659.41
2023-05-08T14:34:40.391Z,101642.63
2023-05-08T14:37:06.770Z,101647.53
2023-05-08T14:39:33.514Z,101647.97
2023-05-08T14:42:21.396Z,101648.78
2023-05-08T14:44:48.132Z,101645.22
2023-05-08T14:47:14.571Z,101637.56
2023-05-08T14:49:41.030Z,101637.75
2023-05-08T14:52:07.584Z,101641.16
2023-05-08T14:54:34.773Z,101627.59
2023-05-08T14:57:01.355Z,101629.94
2023-05-08T14:59:27.776Z,101625.88
2023-05-08T15:01:54.240Z,101623.88
2023-05-08T15:04:20.849Z,101618.97
2023-05-08T15:06:47.329Z,101626.50
2023-05-08T15:09:13.783Z,101621.13
2023-05-08T15:11:40.363Z,101620.97
2023-05-08T15:14:07.062Z,101621.00
2023-05-08T15:16:33.927Z,101624.91
2023-05-08T15:19:00.350Z,101621.00
2023-05-08T15:21:27.351Z,101618.38
2023-05-08T15:23:55.274Z,101622.31
2023-05-08T15:26:22.519Z,101609.28
2023-05-08T15:28:49.056Z,101620.16
2023-05-08T15:31:15.743Z,101615.94
2023-05-08T15:33:44.735Z,101617.75
2023-05-08T15:36:12.858Z,101614.47
2023-05-08T15:38:40.757Z,101619.53
2023-05-08T15:41:07.545Z,101615.00
2023-05-08T15:43:34.068Z,101607.53
2023-05-08T15:46:00.675Z,101608.03
2023-05-08T15:48:27.131Z,101615.84
2023-05-08T15:50:53.558Z,101612.41
2023-05-08T15:53:20.005Z,101609.81
2023-05-08T15:55:46.438Z,101612.22
2023-05-08T15:58:12.893Z,101606.84
2023-05-08T16:00:44.569Z,101605.22
2023-05-08T16:03:11.611Z,101609.78
2023-05-08T16:05:39.374Z,101608.31
2023-05-08T16:08:06.110Z,101603.78
2023-05-08T16:10:32.651Z,101608.47
2023-05-08T16:12:59.115Z,101603.09
2023-05-08T16:15:26.887Z,101596.44
2023-05-08T16:17:53.377Z,101613.53
2023-05-08T16:20:20.194Z,101602.28
2023-05-08T16:22:46.566Z,101613.16
2023-05-08T16:25:13.194Z,101612.88
2023-05-08T16:27:40.088Z,101614.50
2023-05-08T16:30:07.206Z,101606.06
2023-05-08T16:32:34.135Z,101604.09
2023-05-08T16:35:02.666Z,101608.34
2023-05-08T16:37:29.231Z,101601.50
2023-05-08T16:39:55.659Z,101602.16
2023-05-08T16:42:22.033Z,101604.94
2023-05-08T16:44:48.420Z,101605.09
2023-05-08T16:47:14.972Z,101607.88
2023-05-08T16:49:41.444Z,101603.97
2023-05-08T16:52:07.947Z,101604.94
2023-05-08T16:54:34.555Z,101596.81
2023-05-08T16:57:01.314Z,101594.50
2023-05-08T16:59:27.896Z,101596.13
2023-05-08T17:01:54.346Z,101589.09
2023-05-08T17:04:20.741Z,101585.81
2023-05-08T17:06:47.134Z,101586.97
2023-05-08T17:09:13.610Z,101589.69
2023-05-08T17:11:40.349Z,101590.88
2023-05-08T17:14:06.859Z,101593.59
2023-05-08T17:16:33.948Z,101580.41
2023-05-08T17:19:00.537Z,101585.09
2023-05-08T17:21:27.349Z,101577.63
2023-05-08T17:23:53.784Z,101577.44
2023-05-08T17:26:21.678Z,101576.44
2023-05-08T17:28:48.120Z,101580.97
2023-05-08T17:31:15.893Z,101582.44
2023-05-08T17:33:42.406Z,101581.44
2023-05-08T17:36:09.135Z,101586.63
2023-05-08T17:38:41.708Z,101575.16
2023-05-08T17:41:08.146Z,101587.44
2023-05-08T17:43:35.279Z,101591.91
2023-05-08T17:46:01.800Z,101597.38
2023-05-08T17:48:28.338Z,101585.91
2023-05-08T17:50:54.785Z,101592.75
2023-05-08T17:53:21.356Z,101584.72
2023-05-08T17:55:48.405Z,101596.00
2023-05-08T17:58:14.838Z,101587.97
2023-05-08T18:00:41.315Z,101588.28
2023-05-08T18:03:07.975Z,101591.22
2023-05-08T18:05:34.574Z,101596.66
2023-05-08T18:08:01.140Z,101591.69
2023-05-08T18:10:27.567Z,101592.22
2023-05-08T18:12:54.112Z,101582.00
2023-05-08T18:15:20.510Z,101593.06
2023-05-08T18:17:47.899Z,101592.75
2023-05-08T18:20:14.576Z,101600.19
2023-05-08T18:22:41.165Z,101589.00
2023-05-08T18:25:08.028Z,101595.81
2023-05-08T18:27:34.522Z,101596.69
2023-05-08T18:30:01.756Z,101601.47
2023-05-08T18:32:29.096Z,101602.16
2023-05-08T18:34:56.772Z,101602.69
2023-05-08T18:37:23.200Z,101600.47
2023-05-08T18:39:50.019Z,101596.88
2023-05-08T18:42:16.480Z,101611.00
2023-05-08T18:44:42.937Z,101608.97
2023-05-08T18:47:09.372Z,101606.91
2023-05-08T18:49:36.089Z,101611.88
2023-05-08T18:52:02.677Z,101609.59
2023-05-08T18:54:29.324Z,101618.84
2023-05-08T18:56:55.799Z,101622.34
2023-05-08T18:59:22.191Z,101616.22
2023-05-08T19:01:50.489Z,101614.41
2023-05-08T19:04:16.917Z,101611.16
2023-05-08T19:06:43.347Z,101610.84
2023-05-08T19:09:09.795Z,101599.69
2023-05-08T19:11:36.240Z,101607.50
2023-05-08T19:14:04.172Z,101611.06
2023-05-08T19:16:30.676Z,101605.34
2023-05-08T19:18:57.120Z,101611.19
2023-05-08T19:21:23.572Z,101596.44
2023-05-08T19:23:50.000Z,101604.81
2023-05-08T19:26:16.456Z,101604.91
2023-05-08T19:28:42.856Z,101608.38
2023-05-08T19:31:09.350Z,101603.25
2023-05-08T19:33:35.924Z,101607.75
2023-05-08T19:36:02.423Z,101610.13
2023-05-08T19:38:28.938Z,101609.28
2023-05-08T19:40:57.584Z,101609.88
2023-05-08T19:43:27.981Z,101610.69
2023-05-08T19:45:55.302Z,101605.03
2023-05-08T19:48:21.891Z,101600.84
2023-05-08T19:50:48.454Z,101604.56
2023-05-08T19:53:14.937Z,101601.56
2023-05-08T19:55:41.376Z,101593.75
2023-05-08T19:58:07.970Z,101597.38
2023-05-08T20:00:34.480Z,101594.53
2023-05-08T20:03:01.461Z,101597.44
2023-05-08T20:05:27.923Z,101589.72
2023-05-08T20:07:54.452Z,101595.53
2023-05-08T20:10:20.906Z,101599.41
2023-05-08T20:12:47.395Z,101594.84
2023-05-08T20:15:13.993Z,101599.53
2023-05-08T20:17:40.664Z,101600.53
2023-05-08T20:20:07.874Z,101597.13
2023-05-08T20:22:34.311Z,101588.19
2023-05-08T20:25:03.493Z,101591.50
2023-05-08T20:27:31.215Z,101593.72
2023-05-08T20:29:57.717Z,101587.00
2023-05-08T20:32:24.263Z,101590.59
2023-05-08T20:34:50.712Z,101592.09
2023-05-08T20:37:17.158Z,101595.75
2023-05-08T20:39:43.911Z,101597.53
2023-05-08T20:42:10.653Z,101589.91
2023-05-08T20:44:37.042Z,101602.41
2023-05-08T20:47:03.698Z,101598.38
2023-05-08T20:49:30.498Z,101598.94
2023-05-08T20:51:56.945Z,101600.41
2023-05-08T20:54:23.387Z,101607.00
2023-05-08T20:56:49.744Z,101613.59
2023-05-08T20:59:16.692Z,101611.94
2023-05-08T21:01:43.289Z,101601.31
2023-05-08T21:04:09.995Z,101605.63
2023-05-08T21:06:36.555Z,101600.78
2023-05-08T21:09:04.568Z,101604.31
2023-05-08T21:11:33.063Z,101599.94
2023-05-08T21:13:59.503Z,101594.78
2023-05-08T21:16:26.894Z,101593.38
2023-05-08T21:18:55.376Z,101587.13
2023-05-08T21:21:23.171Z,101583.31
2023-05-08T21:23:49.544Z,101577.84
2023-05-08T21:26:15.965Z,101572.75
2023-05-08T21:28:42.384Z,101576.03
2023-05-08T21:31:08.874Z,101563.75
2023-05-08T21:33:35.556Z,101567.28
2023-05-08T21:36:01.986Z,101561.28
2023-05-08T21:38:28.424Z,101573.34
2023-05-08T21:40:55.568Z,101566.78
2023-05-08T21:43:21.979Z,101565.41
2023-05-08T21:45:48.415Z,101550.97
2023-05-08T21:48:14.861Z,101558.88
2023-05-08T21:50:41.309Z,101556.72
2023-05-08T21:53:07.835Z,101552.34
2023-05-08T21:55:34.371Z,101547.72
2023-05-08T21:58:00.804Z,101554.88
2023-05-08T22:00:27.240Z,101553.44
2023-05-08T22:02:53.727Z,101550.50
2023-05-08T22:05:20.203Z,101540.63
2023-05-08T22:07:47.389Z,101549.66
2023-05-08T22:10:13.901Z,101553.50
2023-05-08T22:12:40.644Z,101550.78
2023-05-08T22:15:14.884Z,101549.44
2023-05-08T22:17:49.599Z,101550.28
2023-05-08T22:20:16.089Z,101541.25
2023-05-08T22:22:42.585Z,101551.38
2023-05-08T22:25:09.217Z,101546.47
2023-05-08T22:27:35.727Z,101544.25
2023-05-08T22:30:02.390Z,101540.19
2023-05-08T22:32:29.160Z,101536.88
2023-05-08T22:34:55.785Z,101538.53
2023-05-08T22:37:22.573Z,101530.59
2023-05-08T22:39:49.329Z,101524.88
2023-05-08T22:42:16.613Z,101521.31
2023-05-08T22:44:44.082Z,101521.88
2023-05-08T22:47:11.889Z,101519.69
2023-05-08T22:49:40.109Z,101523.25
2023-05-08T22:52:07.897Z,101520.50
2023-05-08T22:54:34.575Z,101519.97
2023-05-08T22:57:01.620Z,101524.59
2023-05-08T22:59:28.045Z,101512.59
2023-05-08T23:01:54.467Z,101507.94
2023-05-08T23:04:21.467Z,101508.22
2023-05-08T23:06:48.003Z,101510.69
2023-05-08T23:09:14.356Z,101499.22
2023-05-08T23:11:40.807Z,101500.56
2023-05-08T23:14:07.222Z,101495.13
2023-05-08T23:16:34.130Z,101490.47
2023-05-08T23:19:00.644Z,101488.00
2023-05-08T23:21:27.869Z,101481.47
2023-05-08T23:23:54.393Z,101483.38
2023-05-08T23:26:20.813Z,101482.00
2023-05-08T23:28:47.232Z,101479.53
2023-05-08T23:31:13.665Z,101473.28
2023-05-08T23:33:40.106Z,101480.06
2023-05-08T23:36:07.008Z,101476.53
2023-05-08T23:38:34.036Z,101468.63
2023-05-08T23:41:01.155Z,101464.81
2023-05-08T23:43:28.079Z,101462.09
2023-05-08T23:45:54.434Z,101460.44
2023-05-08T23:48:21.081Z,101463.16
2023-05-08T23:50:48.071Z,101459.63
2023-05-08T23:53:15.330Z,101457.16
2023-05-08T23:55:41.777Z,101455.25
2023-05-08T23:58:08.400Z,101460.16
